Time;durP1;ratioP1;P1;durP2;ratioP2;P2;SDS_P1;SDS_P2;PMS_P1;PMS_P2;Temp;Humidity;BMP_temperature;BMP_pressure;BME280_temperature;BME280_humidity;BME280_pressure;Samples;Min_cycle;Max_cycle;Signal;HPM_P1;HPM_P2
2023/02/08 00:00:49;;;;;;;16.75;5.05;;;3.20;99.90;;;;;;4958873;29;20016;-95
2023/02/08 00:03:15;;;;;;;18.38;4.82;;;3.30;99.90;;;;;;4958466;29;20036;-93
2023/02/08 00:05:41;;;;;;;19.45;5.30;;;3.30;99.90;;;;;;4960804;28;20027;-94
2023/02/08 00:08:07;;;;;;;15.27;4.65;;;3.30;99.90;;;;;;4960608;29;20016;-94
2023/02/08 00:10:33;;;;;;;18.50;4.03;;;3.30;99.90;;;;;;4960189;28;20054;-96
2023/02/08 00:12:59;;;;;;;18.45;5.18;;;3.40;99.90;;;;;;4959232;29;20032;-96
2023/02/08 00:15:25;;;;;;;14.02;5.05;;;3.30;99.90;;;;;;4959146;28;20026;-96
2023/02/08 00:17:51;;;;;;;12.40;4.78;;;3.30;99.90;;;;;;4956458;29;20024;-91
2023/02/08 00:20:17;;;;;;;16.48;4.57;;;3.20;99.90;;;;;;4960924;28;20040;-95
2023/02/08 00:22:42;;;;;;;11.10;4.60;;;3.20;99.90;;;;;;4960773;28;20031;-94
2023/02/08 00:25:10;;;;;;;16.75;5.78;;;3.10;99.90;;;;;;4960363;28;20023;-95
2023/02/08 00:27:36;;;;;;;19.92;5.50;;;3.00;99.90;;;;;;4957484;29;20104;-94
2023/02/08 00:30:02;;;;;;;14.98;4.65;;;3.00;99.90;;;;;;4956579;29;20028;-96
2023/02/08 00:32:31;;;;;;;14.40;4.93;;;2.90;99.90;;;;;;4957344;29;20047;-95
2023/02/08 00:34:56;;;;;;;14.82;4.65;;;2.80;99.90;;;;;;4958144;29;20030;-95
2023/02/08 00:37:22;;;;;;;14.75;5.10;;;2.70;99.90;;;;;;4957943;29;20087;-95
2023/02/08 00:39:48;;;;;;;10.95;4.90;;;2.70;99.90;;;;;;4958269;29;20096;-94
2023/02/08 00:42:16;;;;;;;12.57;4.85;;;2.70;99.90;;;;;;4957840;29;20066;-95
2023/02/08 00:44:42;;;;;;;14.40;5.18;;;2.60;99.90;;;;;;4958186;29;20012;-94
2023/02/08 00:47:07;;;;;;;13.82;5.50;;;2.60;99.90;;;;;;4957413;29;20051;-95
2023/02/08 00:49:33;;;;;;;22.00;5.40;;;2.60;99.90;;;;;;4956330;29;20068;-95
2023/02/08 00:51:59;;;;;;;15.05;5.68;;;2.50;99.90;;;;;;4955570;29;20084;-95
2023/02/08 00:54:24;;;;;;;11.02;4.80;;;2.50;99.90;;;;;;4955328;29;20028;-95
2023/02/08 00:56:50;;;;;;;16.33;6.13;;;2.40;99.90;;;;;;4959450;28;20035;-93
2023/02/08 00:59:16;;;;;;;18.70;5.82;;;2.30;99.90;;;;;;4956606;29;20032;-95
2023/02/08 01:01:44;;;;;;;12.23;5.40;;;2.30;99.90;;;;;;4953737;29;20024;-94
2023/02/08 01:04:09;;;;;;;15.98;5.30;;;2.30;99.90;;;;;;4958052;29;20008;-94
2023/02/08 01:06:38;;;;;;;14.82;5.35;;;2.30;99.90;;;;;;4957868;28;20046;-94
2023/02/08 01:09:04;;;;;;;16.70;5.97;;;2.30;99.90;;;;;;4956744;29;20023;-93
2023/02/08 01:11:33;;;;;;;18.30;6.85;;;2.30;99.90;;;;;;4955224;29;20030;-94
2023/02/08 01:13:58;;;;;;;15.65;5.85;;;2.30;99.90;;;;;;4954617;29;20046;-94
2023/02/08 01:16:27;;;;;;;25.70;6.03;;;2.20;99.90;;;;;;4955069;29;20059;-94
2023/02/08 01:18:55;;;;;;;21.77;6.78;;;2.20;99.90;;;;;;4956408;29;20016;-95
2023/02/08 01:21:24;;;;;;;19.50;6.32;;;2.10;99.90;;;;;;4955971;29;20028;-96
2023/02/08 01:23:56;;;;;;;16.20;7.22;;;2.10;99.90;;;;;;4954197;29;20051;-96
2023/02/08 01:26:24;;;;;;;15.68;5.70;;;2.00;99.90;;;;;;4952748;29;20037;-95
2023/02/08 01:28:51;;;;;;;13.20;6.15;;;2.10;99.90;;;;;;4952966;29;20043;-96
2023/02/08 01:31:28;;;;;;;21.60;6.38;;;2.00;99.90;;;;;;4956346;29;20067;-94
2023/02/08 01:33:55;;;;;;;15.68;6.85;;;2.00;99.90;;;;;;4958525;29;20064;-95
2023/02/08 01:36:21;;;;;;;15.63;7.55;;;1.90;99.90;;;;;;4958766;28;20031;-96
2023/02/08 01:38:48;;;;;;;18.65;7.13;;;1.90;99.90;;;;;;4958221;29;20047;-96
2023/02/08 01:41:19;;;;;;;20.00;6.85;;;1.80;99.90;;;;;;4959893;28;20019;-93
2023/02/08 01:44:03;;;;;;;12.65;6.30;;;1.80;99.90;;;;;;4959760;28;20059;-94
2023/02/08 01:46:33;;;;;;;17.90;5.90;;;1.80;99.90;;;;;;4959237;28;20035;-96
2023/02/08 01:49:11;;;;;;;21.83;6.53;;;1.70;99.90;;;;;;4958264;29;20034;-96
2023/02/08 01:51:50;;;;;;;22.30;6.35;;;1.70;99.90;;;;;;4960535;28;20087;-92
2023/02/08 01:54:21;;;;;;;13.93;5.60;;;1.70;99.90;;;;;;4960647;28;20019;-92
2023/02/08 01:56:55;;;;;;;19.55;6.13;;;1.70;99.90;;;;;;4960726;28;20019;-91
2023/02/08 01:59:29;;;;;;;14.20;5.90;;;1.60;99.90;;;;;;4960970;28;20026;-89
2023/02/08 02:01:58;;;;;;;14.50;6.43;;;1.60;99.90;;;;;;4960908;28;20035;-91
2023/02/08 02:04:25;;;;;;;14.80;5.60;;;1.60;99.90;;;;;;4960793;28;20024;-92
2023/02/08 02:06:57;;;;;;;17.13;6.43;;;1.50;99.90;;;;;;4958149;29;20152;-95
2023/02/08 02:09:35;;;;;;;17.45;6.38;;;1.50;99.90;;;;;;4960546;28;20063;-94
2023/02/08 02:12:01;;;;;;;13.38;6.03;;;1.50;99.90;;;;;;4960431;28;20026;-94
2023/02/08 02:14:27;;;;;;;19.45;5.75;;;1.40;99.90;;;;;;4960268;28;20036;-94
2023/02/08 02:16:59;;;;;;;16.60;6.68;;;1.40;99.90;;;;;;4959959;28;20056;-93
2023/02/08 02:19:55;;;;;;;26.17;8.25;;;1.30;99.90;;;;;;4958032;28;20020;-95
2023/02/08 02:22:47;;;;;;;24.13;7.28;;;1.30;99.90;;;;;;4958573;28;20024;-93
2023/02/08 02:25:31;;;;;;;16.55;6.50;;;1.20;99.90;;;;;;4958664;29;20091;-93
2023/02/08 02:28:16;;;;;;;22.45;8.82;;;1.20;99.90;;;;;;4958803;29;20016;-94
2023/02/08 02:30:44;;;;;;;23.00;7.72;;;1.10;99.90;;;;;;4959564;28;20031;-93
2023/02/08 02:33:35;;;;;;;18.48;7.60;;;1.10;99.90;;;;;;4957820;28;20017;-92
2023/02/08 02:36:04;;;;;;;17.98;7.03;;;1.10;99.90;;;;;;4951264;28;20039;-95
2023/02/08 02:38:32;;;;;;;21.08;8.07;;;1.00;99.90;;;;;;4958877;28;20070;-95
2023/02/08 02:45:03;;;;;;;22.05;6.63;;;0.90;99.90;;;;;;4958781;28;20023;-93
2023/02/08 02:47:37;;;;;;;32.38;7.07;;;0.90;99.90;;;;;;4955865;28;20076;-92
2023/02/08 02:50:10;;;;;;;21.65;7.88;;;0.90;99.90;;;;;;4959367;28;20068;-93
2023/02/08 02:52:45;;;;;;;20.67;7.00;;;0.80;99.90;;;;;;4958868;28;20014;-90
2023/02/08 02:55:18;;;;;;;26.88;7.43;;;0.80;99.90;;;;;;4958638;28;20039;-92
2023/02/08 02:57:48;;;;;;;24.60;7.43;;;0.80;99.90;;;;;;4957920;28;20039;-92
2023/02/08 03:00:23;;;;;;;19.27;7.38;;;0.80;99.90;;;;;;4962948;28;20032;-91
2023/02/08 03:02:52;;;;;;;32.85;8.68;;;0.80;99.90;;;;;;4962950;28;20023;-92
2023/02/08 03:05:18;;;;;;;38.53;9.07;;;0.80;99.90;;;;;;4962072;28;20039;-92
2023/02/08 03:07:50;;;;;;;27.48;8.27;;;0.80;99.90;;;;;;4962154;28;20027;-91
2023/02/08 03:10:40;;;;;;;33.28;9.48;;;0.80;99.90;;;;;;4962380;28;20047;-90
2023/02/08 03:13:33;;;;;;;29.17;9.25;;;0.80;99.90;;;;;;4961266;28;20097;-91
2023/02/08 03:16:18;;;;;;;31.10;9.05;;;0.80;99.90;;;;;;4959879;28;20023;-91
2023/02/08 03:19:08;;;;;;;21.90;8.57;;;0.70;99.90;;;;;;4960720;28;20047;-91
2023/02/08 03:21:51;;;;;;;27.10;8.02;;;0.80;99.90;;;;;;4962732;28;20042;-91
2023/02/08 03:24:41;;;;;;;26.80;9.63;;;0.70;99.90;;;;;;4962271;28;20011;-91
2023/02/08 03:27:22;;;;;;;34.30;9.97;;;0.70;99.90;;;;;;4960646;28;20020;-91
2023/02/08 03:30:12;;;;;;;20.98;7.88;;;0.70;99.90;;;;;;4961941;28;20295;-91
2023/02/08 03:33:07;;;;;;;24.73;7.90;;;0.60;99.90;;;;;;4959288;28;20031;-92
2023/02/08 03:35:42;;;;;;;19.33;7.68;;;0.60;99.90;;;;;;4963978;28;20074;-92
2023/02/08 03:38:28;;;;;;;31.52;10.00;;;0.60;99.90;;;;;;4974216;28;20015;-91
2023/02/08 03:40:56;;;;;;;26.13;10.00;;;0.50;99.90;;;;;;4980505;28;20042;-92
2023/02/08 03:43:36;;;;;;;37.15;10.77;;;0.40;99.90;;;;;;4964281;28;20008;-92
2023/02/08 03:46:19;;;;;;;24.48;9.38;;;0.50;99.90;;;;;;4964490;28;20023;-92
2023/02/08 03:48:53;;;;;;;31.45;8.65;;;0.50;99.90;;;;;;4964277;28;20031;-92
2023/02/08 03:51:21;;;;;;;23.67;8.70;;;0.40;99.90;;;;;;4961888;28;20015;-92
2023/02/08 03:53:48;;;;;;;16.17;6.88;;;0.40;99.90;;;;;;4980492;28;20039;-92
2023/02/08 03:56:25;;;;;;;19.17;7.93;;;0.40;99.90;;;;;;4980338;28;20094;-92
2023/02/08 03:59:14;;;;;;;23.58;7.50;;;0.40;99.90;;;;;;4964097;28;20027;-93
2023/02/08 04:01:47;;;;;;;22.63;7.07;;;0.40;99.90;;;;;;4976964;28;20043;-93
2023/02/08 04:04:16;;;;;;;26.40;7.55;;;0.30;99.90;;;;;;4962697;28;20082;-93
2023/02/08 04:06:42;;;;;;;32.63;8.95;;;0.40;99.90;;;;;;4980179;28;20069;-92
2023/02/08 04:09:13;;;;;;;28.05;9.52;;;0.30;99.90;;;;;;4980064;28;20047;-92
2023/02/08 04:11:39;;;;;;;30.50;10.95;;;0.30;99.90;;;;;;4960788;28;20039;-91
2023/02/08 04:14:05;;;;;;;33.42;9.75;;;0.20;99.90;;;;;;4961470;28;20016;-91
2023/02/08 04:16:31;;;;;;;30.55;10.88;;;0.20;99.90;;;;;;4960983;28;20031;-90
2023/02/08 04:18:56;;;;;;;48.83;11.13;;;0.20;99.90;;;;;;4961690;28;20039;-91
2023/02/08 04:21:22;;;;;;;34.30;11.02;;;0.20;99.90;;;;;;4960866;28;20031;-91
2023/02/08 04:23:48;;;;;;;37.45;10.02;;;0.20;99.90;;;;;;4960880;28;20012;-93
2023/02/08 04:26:13;;;;;;;28.65;9.63;;;0.20;99.90;;;;;;4960806;28;20008;-94
2023/02/08 04:28:41;;;;;;;59.80;11.57;;;0.10;99.90;;;;;;4948682;29;20032;-96
2023/02/08 04:31:10;;;;;;;44.40;11.40;;;0.10;99.90;;;;;;4952145;29;20020;-94
2023/02/08 04:33:36;;;;;;;40.13;11.50;;;0.10;99.90;;;;;;4949545;29;20032;-95
2023/02/08 04:36:02;;;;;;;44.30;11.73;;;0.10;99.90;;;;;;4949843;29;20027;-94
2023/02/08 04:38:27;;;;;;;51.03;12.70;;;0.00;99.90;;;;;;4955784;29;20028;-94
2023/02/08 04:40:53;;;;;;;74.80;14.55;;;0.00;99.90;;;;;;4948482;29;20071;-96
2023/02/08 04:43:19;;;;;;;62.85;12.30;;;0.00;99.90;;;;;;4947417;29;20035;-94
2023/02/08 04:45:44;;;;;;;54.17;11.30;;;-0.10;99.90;;;;;;4947111;29;20062;-96
2023/02/08 04:48:12;;;;;;;37.60;10.95;;;-0.10;99.90;;;;;;4951888;29;20130;-95
2023/02/08 04:50:38;;;;;;;55.10;12.52;;;-0.10;99.90;;;;;;4945338;29;20044;-96
2023/02/08 04:53:07;;;;;;;39.53;10.85;;;-0.10;99.90;;;;;;4946454;29;20130;-94
2023/02/08 04:55:33;;;;;;;81.35;14.30;;;-0.10;99.90;;;;;;4956490;29;20030;-96
2023/02/08 04:57:58;;;;;;;51.65;14.80;;;-0.20;99.90;;;;;;4957617;29;20031;-96
2023/02/08 05:00:27;;;;;;;53.50;12.85;;;-0.20;99.90;;;;;;4957672;29;20032;-93
2023/02/08 05:02:57;;;;;;;48.70;13.02;;;-0.20;99.90;;;;;;4959550;28;20036;-95
2023/02/08 05:05:24;;;;;;;49.28;13.23;;;-0.20;99.90;;;;;;4947372;29;20024;-94
2023/02/08 05:07:53;;;;;;;73.80;12.65;;;-0.30;99.90;;;;;;4945038;29;20083;-95
2023/02/08 05:10:19;;;;;;;66.07;12.15;;;-0.30;99.90;;;;;;4943581;29;20096;-96
2023/02/08 05:12:46;;;;;;;62.38;11.85;;;-0.30;99.90;;;;;;4940095;29;20051;-94
2023/02/08 05:15:12;;;;;;;66.07;12.23;;;-0.30;99.90;;;;;;4938385;29;20083;-95
2023/02/08 05:17:37;;;;;;;48.50;12.02;;;-0.40;99.90;;;;;;4937487;29;20051;-94
2023/02/08 05:20:04;;;;;;;41.75;12.52;;;-0.40;99.90;;;;;;4937128;29;20028;-95
2023/02/08 05:22:31;;;;;;;59.25;14.95;;;-0.40;99.90;;;;;;4936684;29;20023;-95
2023/02/08 05:24:56;;;;;;;47.33;12.70;;;-0.40;99.90;;;;;;4938919;29;20019;-95
2023/02/08 05:27:22;;;;;;;63.08;13.95;;;-0.30;99.90;;;;;;4940891;29;20485;-96
2023/02/08 05:29:48;;;;;;;76.07;12.85;;;-0.30;99.90;;;;;;4940257;29;20032;-96
2023/02/08 05:32:13;;;;;;;54.00;12.45;;;-0.30;99.90;;;;;;4940146;29;20035;-95
2023/02/08 05:34:39;;;;;;;61.00;12.63;;;-0.30;99.90;;;;;;4938972;29;20066;-96
2023/02/08 05:37:05;;;;;;;70.68;12.80;;;-0.20;99.90;;;;;;4953345;29;20065;-93
2023/02/08 05:39:30;;;;;;;77.18;13.25;;;-0.30;99.90;;;;;;4950704;29;20070;-95
2023/02/08 05:41:56;;;;;;;60.67;13.88;;;-0.30;99.90;;;;;;4939529;29;20051;-94
2023/02/08 05:44:22;;;;;;;83.82;13.68;;;-0.30;99.90;;;;;;4938545;29;20024;-95
2023/02/08 05:46:47;;;;;;;94.45;13.73;;;-0.20;99.90;;;;;;4938849;29;20027;-96
2023/02/08 05:49:13;;;;;;;94.70;13.13;;;-0.30;99.90;;;;;;4936806;29;20036;-95
2023/02/08 05:51:39;;;;;;;67.00;15.25;;;-0.20;99.90;;;;;;4937202;29;20032;-96
2023/02/08 05:54:05;;;;;;;61.22;12.05;;;-0.30;99.90;;;;;;4936338;29;20047;-94
2023/02/08 05:56:31;;;;;;;77.05;11.80;;;-0.20;99.90;;;;;;4937646;29;20034;-95
2023/02/08 05:59:00;;;;;;;113.68;13.85;;;-0.20;99.90;;;;;;4936054;29;20370;-95
2023/02/08 06:01:25;;;;;;;95.75;11.02;;;-0.20;99.90;;;;;;4936439;29;20047;-94
2023/02/08 06:03:51;;;;;;;117.72;14.38;;;-0.20;99.90;;;;;;4936543;29;20028;-94
2023/02/08 06:06:17;;;;;;;96.55;14.93;;;-0.10;99.90;;;;;;4937325;29;20062;-95
2023/02/08 06:08:43;;;;;;;75.40;12.18;;;-0.20;99.90;;;;;;4935555;29;20121;-95
2023/02/08 06:11:08;;;;;;;108.05;13.70;;;-0.10;99.90;;;;;;4936047;29;20024;-93
2023/02/08 06:13:34;;;;;;;47.63;11.07;;;-0.10;99.90;;;;;;4936013;29;20032;-93
2023/02/08 06:16:00;;;;;;;49.65;10.75;;;-0.10;99.90;;;;;;4935631;29;20055;-96
2023/02/08 06:18:26;;;;;;;49.70;11.13;;;-0.10;99.90;;;;;;4934960;29;20106;-95
2023/02/08 06:20:53;;;;;;;77.30;12.88;;;-0.10;99.90;;;;;;4935458;29;20046;-94
2023/02/08 06:23:19;;;;;;;57.85;11.43;;;-0.10;99.90;;;;;;4935581;29;20038;-94
2023/02/08 06:25:48;;;;;;;67.03;13.02;;;-0.10;99.90;;;;;;4936009;29;20067;-95
2023/02/08 06:28:15;;;;;;;52.03;11.88;;;-0.10;99.90;;;;;;4936784;29;20035;-96
2023/02/08 06:30:41;;;;;;;81.13;13.88;;;-0.10;99.90;;;;;;4933421;29;20040;-96
2023/02/08 06:33:07;;;;;;;57.17;11.82;;;-0.10;99.90;;;;;;4943959;29;20504;-94
2023/02/08 06:35:34;;;;;;;67.05;10.82;;;-0.10;99.90;;;;;;4943541;29;20020;-96
2023/02/08 06:37:59;;;;;;;57.08;12.75;;;-0.10;99.90;;;;;;4946146;29;20030;-95
2023/02/08 06:40:25;;;;;;;34.25;10.00;;;-0.10;99.90;;;;;;4945992;29;20098;-94
2023/02/08 06:43:00;;;;;;;28.25;10.35;;;-0.10;99.90;;;;;;4954392;29;20038;-94
2023/02/08 06:45:26;;;;;;;58.95;10.52;;;-0.10;99.90;;;;;;4967993;29;20055;-96
2023/02/08 06:47:58;;;;;;;50.85;11.18;;;-0.10;99.90;;;;;;4950557;29;20051;-95
2023/02/08 06:50:23;;;;;;;38.80;11.05;;;-0.10;99.90;;;;;;4945472;29;20075;-94
2023/02/08 06:52:49;;;;;;;48.60;11.63;;;-0.10;99.90;;;;;;4939169;29;20084;-94
2023/02/08 06:55:15;;;;;;;50.15;10.35;;;-0.10;99.90;;;;;;4939537;29;20463;-94
2023/02/08 06:57:41;;;;;;;49.72;10.73;;;-0.20;99.90;;;;;;4940314;29;20028;-95
2023/02/08 07:00:07;;;;;;;35.10;11.38;;;-0.20;99.90;;;;;;4939121;29;20058;-95
2023/02/08 07:02:33;;;;;;;28.30;10.70;;;-0.30;99.90;;;;;;4940861;29;20075;-96
2023/02/08 07:05:00;;;;;;;53.53;12.88;;;-0.30;99.90;;;;;;4942559;29;20028;-95
2023/02/08 07:07:27;;;;;;;36.85;10.85;;;-0.30;99.90;;;;;;4938399;29;20122;-93
2023/02/08 07:09:53;;;;;;;66.75;13.02;;;-0.30;99.90;;;;;;4940094;29;20042;-95
2023/02/08 07:12:19;;;;;;;58.70;12.18;;;-0.30;99.90;;;;;;4940713;29;20390;-95
2023/02/08 07:14:45;;;;;;;38.80;11.02;;;-0.30;99.90;;;;;;4948545;29;20032;-95
2023/02/08 07:17:11;;;;;;;46.25;10.82;;;-0.30;99.90;;;;;;4950280;29;20044;-96
2023/02/08 07:19:37;;;;;;;103.47;11.85;;;-0.30;99.90;;;;;;4948604;29;20121;-93
2023/02/08 07:22:06;;;;;;;38.30;10.30;;;-0.30;99.90;;;;;;4944704;29;20028;-94
2023/02/08 07:24:35;;;;;;;29.10;10.27;;;-0.40;99.90;;;;;;4957537;29;20034;-94
2023/02/08 07:27:01;;;;;;;78.47;11.35;;;-0.40;99.90;;;;;;4951198;29;20046;-94
2023/02/08 07:29:29;;;;;;;87.95;13.35;;;-0.40;99.90;;;;;;4937938;29;20497;-93
2023/02/08 07:31:55;;;;;;;49.00;11.45;;;-0.40;99.90;;;;;;4937044;29;20067;-94
2023/02/08 07:34:20;;;;;;;100.35;14.52;;;-0.40;99.90;;;;;;4937834;29;20015;-93
2023/02/08 07:36:48;;;;;;;39.70;11.30;;;-0.50;99.90;;;;;;4943325;29;20028;-95
2023/02/08 07:39:13;;;;;;;45.08;11.98;;;-0.50;99.90;;;;;;4938150;29;20020;-95
2023/02/08 07:41:39;;;;;;;118.50;13.93;;;-0.50;99.90;;;;;;4943622;29;20042;-95
2023/02/08 07:44:10;;;;;;;24.52;11.60;;;-0.50;99.90;;;;;;4954493;28;20031;-89
2023/02/08 07:46:35;;;;;;;;;;;-0.50;99.90;;;;;;4961459;28;20035;-90
2023/02/08 07:49:01;;;;;;;34.70;14.20;;;-0.40;99.90;;;;;;4958212;28;19923;-91
2023/02/08 07:51:34;;;;;;;42.80;16.23;;;-0.20;99.90;;;;;;4960535;28;20018;-89
2023/02/08 07:54:06;;;;;;;46.53;17.00;;;-0.10;99.90;;;;;;4961552;28;20087;-91
2023/02/08 07:56:43;;;;;;;184.73;17.13;;;0.00;99.90;;;;;;4943983;29;20032;-94
2023/02/08 07:59:17;;;;;;;31.45;12.98;;;0.00;99.90;;;;;;4958441;28;20179;-95
2023/02/08 08:01:46;;;;;;;48.67;14.25;;;0.00;99.90;;;;;;4961785;28;20052;-90
2023/02/08 08:04:11;;;;;;;24.58;12.43;;;0.10;99.90;;;;;;4958848;28;20011;-95
2023/02/08 08:06:37;;;;;;;36.33;12.20;;;0.10;99.90;;;;;;4940921;29;20059;-95
2023/02/08 08:09:04;;;;;;;75.75;14.63;;;0.10;99.90;;;;;;4950045;29;20055;-95
2023/02/08 08:11:30;;;;;;;34.60;13.30;;;0.10;99.90;;;;;;4941461;29;20788;-95
2023/02/08 08:13:56;;;;;;;22.98;11.50;;;0.00;99.90;;;;;;4944611;29;20087;-95
2023/02/08 08:16:21;;;;;;;49.28;17.20;;;0.00;99.90;;;;;;4947246;29;20063;-94
2023/02/08 08:18:48;;;;;;;32.58;13.93;;;0.10;99.90;;;;;;4944973;29;20569;-94
2023/02/08 08:21:19;;;;;;;32.63;15.15;;;0.00;99.90;;;;;;4946094;29;20012;-93
2023/02/08 08:23:46;;;;;;;24.08;12.85;;;0.00;99.90;;;;;;4961650;28;20071;-88
2023/02/08 08:26:16;;;;;;;27.63;13.38;;;0.00;99.90;;;;;;4960820;28;20008;-89
2023/02/08 08:28:47;;;;;;;25.02;13.45;;;0.00;99.90;;;;;;4951254;28;20039;-94
2023/02/08 08:31:14;;;;;;;;;;;0.10;99.90;;;;;;4948836;29;20032;-94
2023/02/08 08:33:41;;;;;;;23.00;11.32;;;0.10;99.90;;;;;;4929817;29;19982;-95
2023/02/08 08:36:08;;;;;;;22.17;11.15;;;0.30;99.90;;;;;;4945361;29;20506;-96
2023/02/08 08:38:34;;;;;;;23.63;10.85;;;0.30;99.90;;;;;;4943676;29;20028;-95
2023/02/08 08:40:59;;;;;;;31.27;11.98;;;0.40;99.90;;;;;;4946860;29;20023;-95
2023/02/08 08:43:28;;;;;;;24.55;11.02;;;0.40;99.90;;;;;;4947137;29;20055;-95
2023/02/08 08:45:54;;;;;;;28.05;12.07;;;0.30;99.90;;;;;;4947031;29;20039;-91
2023/02/08 08:48:22;;;;;;;25.00;11.20;;;0.40;99.90;;;;;;4942367;29;20035;-93
2023/02/08 08:50:49;;;;;;;33.53;14.10;;;0.40;99.90;;;;;;4952449;29;20052;-93
2023/02/08 08:53:15;;;;;;;30.55;13.25;;;0.50;99.90;;;;;;4946884;29;20040;-95
2023/02/08 08:55:41;;;;;;;40.95;13.02;;;0.50;99.90;;;;;;4943664;29;20131;-94
2023/02/08 08:58:06;;;;;;;69.20;14.52;;;0.60;99.90;;;;;;4938930;29;20035;-94
2023/02/08 09:00:32;;;;;;;41.28;14.00;;;0.60;99.90;;;;;;4933385;29;20032;-93
2023/02/08 09:02:58;;;;;;;43.25;16.45;;;0.60;99.90;;;;;;4942046;29;20045;-94
2023/02/08 09:05:23;;;;;;;112.72;15.00;;;0.70;99.90;;;;;;4938237;29;20067;-94
2023/02/08 09:07:49;;;;;;;25.63;13.27;;;0.80;99.90;;;;;;4935844;29;20027;-94
2023/02/08 09:10:14;;;;;;;26.17;11.93;;;0.80;99.90;;;;;;4937285;29;20100;-93
2023/02/08 09:12:42;;;;;;;40.53;11.48;;;0.80;99.90;;;;;;4936665;29;20155;-95
2023/02/08 09:15:08;;;;;;;32.45;12.85;;;0.90;99.90;;;;;;4941368;29;20034;-95
2023/02/08 09:17:35;;;;;;;167.10;18.58;;;0.90;99.90;;;;;;4940376;29;20076;-94
2023/02/08 09:20:01;;;;;;;27.95;11.90;;;0.90;99.90;;;;;;4941111;29;20059;-93
2023/02/08 09:22:27;;;;;;;63.10;13.27;;;0.90;99.90;;;;;;4938380;29;20504;-93
2023/02/08 09:24:53;;;;;;;24.75;12.32;;;0.90;99.90;;;;;;4943608;29;20106;-92
2023/02/08 09:27:18;;;;;;;37.17;11.70;;;1.00;99.90;;;;;;4949310;29;20027;-94
2023/02/08 09:29:44;;;;;;;31.98;12.10;;;1.00;99.90;;;;;;4943321;29;20122;-94
2023/02/08 09:32:10;;;;;;;69.88;14.15;;;1.10;99.90;;;;;;4940022;29;20130;-96
2023/02/08 09:34:36;;;;;;;47.10;13.20;;;1.10;99.90;;;;;;4938763;29;20032;-95
2023/02/08 09:37:01;;;;;;;23.27;11.55;;;1.10;99.90;;;;;;4937644;29;20035;-94
2023/02/08 09:39:27;;;;;;;27.92;11.80;;;1.20;99.90;;;;;;4937941;29;20107;-94
2023/02/08 09:42:16;;;;;;;31.30;12.43;;;1.30;99.90;;;;;;4924470;29;20061;-94
2023/02/08 09:45:11;;;;;;;33.17;13.43;;;1.40;99.90;;;;;;4937247;29;20087;-94
2023/02/08 09:47:43;;;;;;;48.33;15.20;;;1.60;99.90;;;;;;4937664;29;20032;-95
2023/02/08 09:50:40;;;;;;;32.25;13.52;;;1.70;99.90;;;;;;4939054;29;20036;-94
2023/02/08 09:53:19;;;;;;;34.78;14.98;;;1.90;99.90;;;;;;4938634;29;20091;-94
2023/02/08 09:55:56;;;;;;;42.90;17.08;;;2.00;99.90;;;;;;4940097;29;20039;-94
2023/02/08 09:58:43;;;;;;;57.88;22.67;;;2.20;99.90;;;;;;4948150;29;20100;-94
2023/02/08 10:01:20;;;;;;;114.00;28.80;;;2.30;99.90;;;;;;4950008;29;20024;-94
2023/02/08 10:03:47;;;;;;;91.40;29.30;;;2.30;99.90;;;;;;4940050;29;20067;-93
2023/02/08 10:06:18;;;;;;;88.75;26.63;;;2.40;99.90;;;;;;4937719;29;20052;-93
2023/02/08 10:08:46;;;;;;;158.73;24.52;;;2.40;99.90;;;;;;4937424;29;20051;-94
2023/02/08 10:11:24;;;;;;;115.35;27.25;;;2.40;99.90;;;;;;4937469;29;20470;-94
2023/02/08 10:14:17;;;;;;;50.08;21.30;;;2.50;99.90;;;;;;4936821;29;20024;-94
2023/02/08 10:16:54;;;;;;;50.55;20.85;;;2.70;99.90;;;;;;4936633;29;20087;-94
2023/02/08 10:19:46;;;;;;;46.97;21.17;;;2.90;99.90;;;;;;4937685;29;20071;-93
2023/02/08 10:22:17;;;;;;;36.60;15.90;;;3.10;99.90;;;;;;4937895;29;20020;-93
2023/02/08 10:24:55;;;;;;;33.15;16.58;;;3.20;99.90;;;;;;4937652;29;20035;-96
2023/02/08 10:27:36;;;;;;;35.03;17.23;;;3.40;99.90;;;;;;4937459;29;20119;-93
2023/02/08 10:30:17;;;;;;;;;;;3.70;99.90;;;;;;4937746;29;20042;-93
2023/02/08 10:32:47;;;;;;;29.60;15.48;;;3.90;99.90;;;;;;4936507;29;19907;-92
2023/02/08 10:35:21;;;;;;;30.25;15.70;;;4.40;99.90;;;;;;4936296;29;20087;-94
2023/02/08 10:37:47;;;;;;;30.50;15.15;;;4.80;99.90;;;;;;4937934;29;20143;-94
2023/02/08 10:40:25;;;;;;;30.60;14.82;;;5.30;99.90;;;;;;4936785;29;20115;-92
2023/02/08 10:42:57;;;;;;;25.30;13.45;;;5.70;99.90;;;;;;4936725;29;20445;-92
2023/02/08 10:45:34;;;;;;;29.58;13.98;;;6.00;99.90;;;;;;4936980;29;20027;-90
2023/02/08 10:48:03;;;;;;;31.25;14.30;;;6.40;99.90;;;;;;4931772;29;20020;-93
2023/02/08 10:50:34;;;;;;;25.83;13.70;;;6.70;99.90;;;;;;4925140;29;20043;-93
2023/02/08 10:53:00;;;;;;;26.77;14.38;;;7.00;99.90;;;;;;4936077;29;20036;-93
2023/02/08 10:55:26;;;;;;;26.10;13.52;;;7.30;99.90;;;;;;4937214;29;20110;-93
2023/02/08 10:57:57;;;;;;;24.73;13.70;;;7.50;99.90;;;;;;4938261;29;20398;-93
2023/02/08 11:00:30;;;;;;;21.90;12.77;;;7.70;99.90;;;;;;4939387;29;20086;-91
2023/02/08 11:03:13;;;;;;;23.10;11.60;;;7.90;99.90;;;;;;4923269;29;20024;-96
2023/02/08 11:05:39;;;;;;;22.73;12.77;;;8.20;99.90;;;;;;4939378;29;20031;-96
2023/02/08 11:08:05;;;;;;;24.45;13.25;;;8.40;99.90;;;;;;4939690;29;20062;-95
2023/02/08 11:10:32;;;;;;;29.92;15.07;;;8.50;99.90;;;;;;4941113;29;20035;-92
2023/02/08 11:13:12;;;;;;;30.05;15.18;;;8.70;99.90;;;;;;4937959;29;20028;-96
2023/02/08 11:15:53;;;;;;;29.40;14.52;;;8.90;99.90;;;;;;4940679;29;20028;-93
2023/02/08 11:18:25;;;;;;;25.67;13.60;;;9.10;99.90;;;;;;4944827;29;20095;-93
2023/02/08 11:20:57;;;;;;;25.55;13.43;;;9.50;99.90;;;;;;4948167;29;20032;-94
2023/02/08 11:23:32;;;;;;;25.55;12.00;;;9.80;99.90;;;;;;4949610;29;20036;-93
2023/02/08 11:26:35;;;;;;;27.52;12.35;;;10.10;99.90;;;;;;4951622;29;20051;-92
2023/02/08 11:29:23;;;;;;;21.55;9.25;;;10.40;99.90;;;;;;4949264;29;20016;-92
2023/02/08 11:32:02;;;;;;;20.23;9.73;;;10.70;99.90;;;;;;4953030;29;20066;-96
2023/02/08 11:34:41;;;;;;;22.88;8.50;;;10.90;99.90;;;;;;4967075;29;20031;-95
2023/02/08 11:37:33;;;;;;;15.85;7.18;;;11.20;99.90;;;;;;4958470;29;20016;-94
2023/02/08 11:40:00;;;;;;;21.65;7.85;;;11.70;99.80;;;;;;4954270;29;20051;-95
2023/02/08 11:42:33;;;;;;;13.95;7.72;;;12.00;97.40;;;;;;4955500;29;20023;-94
2023/02/08 11:45:00;;;;;;;13.48;6.47;;;12.30;95.30;;;;;;4951294;29;20035;-94
2023/02/08 11:47:30;;;;;;;15.02;7.35;;;12.50;93.80;;;;;;4952884;29;20106;-94
2023/02/08 11:49:58;;;;;;;11.53;5.93;;;12.60;91.20;;;;;;4952363;29;20103;-94
2023/02/08 11:52:31;;;;;;;9.73;5.70;;;12.80;90.00;;;;;;4942872;29;20030;-95
2023/02/08 11:55:15;;;;;;;11.27;5.13;;;13.00;87.30;;;;;;4942752;29;20493;-96
2023/02/08 11:58:01;;;;;;;9.52;4.75;;;13.00;83.50;;;;;;4930264;29;20134;-95
2023/02/08 12:00:34;;;;;;;8.77;4.10;;;13.20;81.40;;;;;;4938018;29;20043;-94
2023/02/08 12:03:12;;;;;;;15.60;5.07;;;13.10;79.00;;;;;;4951256;29;20036;-95
2023/02/08 12:06:23;;;;;;;8.93;3.83;;;13.00;75.90;;;;;;4943167;29;20032;-95
2023/02/08 12:08:54;;;;;;;12.38;4.38;;;13.10;74.10;;;;;;4948461;29;20036;-93
2023/02/08 12:11:44;;;;;;;11.63;4.50;;;13.40;73.40;;;;;;4950401;29;20040;-95
2023/02/08 12:14:28;;;;;;;9.15;4.53;;;13.70;71.30;;;;;;4954321;28;20042;-93
2023/02/08 12:17:02;;;;;;;8.73;4.20;;;13.70;68.20;;;;;;4954099;29;20064;-94
2023/02/08 12:20:11;;;;;;;9.82;4.40;;;13.70;66.30;;;;;;4945168;29;20075;-94
2023/02/08 12:22:46;;;;;;;10.50;4.82;;;13.60;64.50;;;;;;4948296;29;20040;-96
2023/02/08 12:25:33;;;;;;;13.07;4.35;;;13.40;64.50;;;;;;4930511;29;20059;-94
2023/02/08 12:28:36;;;;;;;7.90;3.97;;;13.30;63.20;;;;;;4939781;29;20032;-96
2023/02/08 12:31:06;;;;;;;12.02;5.05;;;13.00;62.50;;;;;;4940060;29;20061;-94
2023/02/08 12:33:52;;;;;;;11.18;4.32;;;12.70;62.10;;;;;;4940238;29;20028;-94
2023/02/08 12:36:45;;;;;;;11.20;4.78;;;12.50;61.90;;;;;;4953887;28;20027;-94
2023/02/08 12:42:40;;;;;;;13.13;4.80;;;12.30;61.60;;;;;;4961782;28;20031;-91
2023/02/08 12:48:59;;;;;;;11.63;5.57;;;12.80;61.70;;;;;;5136124;27;20419;-95
2023/02/08 12:51:50;;;;;;;8.98;4.78;;;13.00;62.10;;;;;;5097465;27;20056;-94
2023/02/08 12:54:42;;;;;;;18.30;5.50;;;13.00;61.40;;;;;;5097725;27;20008;-93
2023/02/08 12:57:12;;;;;;;12.30;5.55;;;13.00;60.40;;;;;;5097928;27;20080;-90
2023/02/08 13:00:06;;;;;;;9.35;7.22;;;12.90;60.20;;;;;;5080399;28;20016;-93
2023/02/08 13:03:05;;;;;;;10.75;5.38;;;12.80;59.90;;;;;;5095236;28;20017;-92
2023/02/08 13:05:37;;;;;;;28.83;7.32;;;12.90;60.10;;;;;;4978726;28;20023;-91
2023/02/08 13:08:50;;;;;;;15.50;5.65;;;13.00;59.70;;;;;;4979123;28;20058;-93
2023/02/08 13:11:22;;;;;;;12.77;5.35;;;13.30;59.60;;;;;;4982287;28;20026;-93